createdAt,value
2022-11-17T00:00:27.031Z,6.77
2022-11-17T00:02:54.262Z,4.83
2022-11-17T00:05:22.719Z,6.20
2022-11-17T00:07:50.244Z,6.40
2022-11-17T00:10:17.985Z,5.43
2022-11-17T00:12:46.552Z,5.53
2022-11-17T00:15:13.885Z,6.00
2022-11-17T00:17:41.357Z,5.17
2022-11-17T00:20:10.367Z,7.27
2022-11-17T00:22:37.604Z,7.17
2022-11-17T00:25:05.459Z,5.70
2022-11-17T00:27:32.637Z,6.53
2022-11-17T00:30:01.160Z,6.30
2022-11-17T00:32:28.321Z,7.53
2022-11-17T00:34:55.513Z,6.43
2022-11-17T00:37:23.039Z,5.27
2022-11-17T00:39:50.329Z,6.57
2022-11-17T00:42:17.625Z,6.13
2022-11-17T00:44:44.868Z,6.07
2022-11-17T00:47:13.401Z,5.87
2022-11-17T00:49:40.591Z,5.97
2022-11-17T00:52:07.809Z,5.30
2022-11-17T00:54:35.024Z,6.53
2022-11-17T00:57:02.197Z,6.33
2022-11-17T00:59:29.420Z,4.93
2022-11-17T01:01:56.658Z,5.07
2022-11-17T01:04:25.209Z,5.90
2022-11-17T01:06:52.496Z,5.20
2022-11-17T01:09:21.949Z,5.50
2022-11-17T01:11:51.396Z,6.23
2022-11-17T01:14:20.873Z,5.63
2022-11-17T01:16:48.256Z,5.07
2022-11-17T01:19:16.174Z,4.03
2022-11-17T01:21:45.536Z,5.80
2022-11-17T01:24:13.932Z,4.00
2022-11-17T01:26:42.734Z,4.83
2022-11-17T01:29:12.132Z,5.40
2022-11-17T01:31:41.655Z,4.93
2022-11-17T01:34:09.330Z,4.07
2022-11-17T01:36:38.468Z,3.70
2022-11-17T01:39:06.993Z,3.63
2022-11-17T01:41:34.257Z,3.80
2022-11-17T01:44:35.033Z,3.43
2022-11-17T01:47:02.921Z,3.33
2022-11-17T01:49:30.842Z,3.00
2022-11-17T01:52:02.856Z,2.70
2022-11-17T01:54:37.445Z,3.73
2022-11-17T01:57:10.292Z,2.80
2022-11-17T01:59:41.725Z,2.70
2022-11-17T02:02:09.317Z,2.63
2022-11-17T02:04:40.896Z,2.53
2022-11-17T02:07:14.312Z,3.10
2022-11-17T02:09:43.862Z,2.73
2022-11-17T02:12:13.753Z,2.17
2022-11-17T02:14:41.026Z,3.70
2022-11-17T02:17:14.291Z,3.17
2022-11-17T02:19:44.221Z,2.73
2022-11-17T02:22:52.983Z,3.43
2022-11-17T02:25:38.313Z,3.13
2022-11-17T02:28:17.967Z,3.57
2022-11-17T02:31:01.278Z,3.33
2022-11-17T02:33:38.706Z,3.70
2022-11-17T02:36:10.687Z,3.60
2022-11-17T02:38:45.952Z,4.07
2022-11-17T02:41:21.789Z,4.07
2022-11-17T02:44:00.799Z,4.03
2022-11-17T02:46:32.260Z,3.20
2022-11-17T02:49:03.901Z,3.03
2022-11-17T02:51:32.156Z,4.00
2022-11-17T02:53:59.681Z,3.50
2022-11-17T02:56:26.865Z,3.60
2022-11-17T02:59:00.053Z,3.90
2022-11-17T03:01:48.071Z,4.60
2022-11-17T03:04:28.077Z,3.90
2022-11-17T03:07:09.207Z,4.80
2022-11-17T03:09:46.045Z,4.33
2022-11-17T03:12:20.446Z,3.83
2022-11-17T03:14:57.138Z,4.07
2022-11-17T03:17:29.907Z,5.13
2022-11-17T03:20:03.087Z,5.10
2022-11-17T03:22:41.289Z,5.20
2022-11-17T03:25:14.286Z,4.70
2022-11-17T03:27:46.721Z,5.17
2022-11-17T03:30:17.321Z,4.90
2022-11-17T03:32:50.166Z,4.63
2022-11-17T03:35:22.509Z,4.90
2022-11-17T03:37:54.005Z,4.87
2022-11-17T03:40:25.077Z,5.53
2022-11-17T03:42:56.505Z,8.97
2022-11-17T03:45:27.662Z,7.33
2022-11-17T03:47:59.163Z,4.63
2022-11-17T03:50:30.980Z,7.00
2022-11-17T03:52:58.582Z,5.27
2022-11-17T03:55:30.790Z,4.73
2022-11-17T03:58:03.775Z,7.13
2022-11-17T04:00:34.606Z,5.60
2022-11-17T04:03:01.854Z,6.37
2022-11-17T04:05:29.020Z,10.50
2022-11-17T04:07:56.241Z,7.60
2022-11-17T04:10:25.308Z,5.87
2022-11-17T04:12:53.975Z,8.23
2022-11-17T04:15:21.412Z,7.60
2022-11-17T04:17:50.139Z,7.87
2022-11-17T04:20:17.399Z,6.60
2022-11-17T04:22:44.665Z,7.37
2022-11-17T04:25:11.907Z,7.83
2022-11-17T04:27:39.103Z,6.43
2022-11-17T04:30:07.133Z,7.20
2022-11-17T04:32:34.340Z,8.00
2022-11-17T04:35:02.955Z,7.23
2022-11-17T04:37:30.215Z,7.30
2022-11-17T04:39:57.403Z,6.97
2022-11-17T04:42:24.616Z,6.40
2022-11-17T04:44:51.867Z,7.40
2022-11-17T04:47:19.083Z,7.17
2022-11-17T04:49:46.271Z,6.47
2022-11-17T04:52:14.799Z,8.87
2022-11-17T04:54:42.004Z,7.57
2022-11-17T04:57:09.183Z,8.40
2022-11-17T04:59:36.366Z,7.83
2022-11-17T05:02:06.154Z,7.13
2022-11-17T05:04:33.786Z,7.83
2022-11-17T05:07:01.100Z,7.70
2022-11-17T05:09:29.790Z,6.70
2022-11-17T05:11:57.064Z,6.40
2022-11-17T05:14:26.337Z,8.30
2022-11-17T05:16:54.147Z,6.60
2022-11-17T05:19:23.235Z,7.50
2022-11-17T05:21:50.939Z,7.60
2022-11-17T05:24:18.671Z,10.00
2022-11-17T05:26:48.553Z,9.80
2022-11-17T05:29:18.778Z,10.27
2022-11-17T05:31:46.157Z,7.87
2022-11-17T05:34:15.774Z,9.17
2022-11-17T05:36:43.450Z,9.37
2022-11-17T05:39:10.655Z,7.40
2022-11-17T05:41:37.855Z,8.73
2022-11-17T05:44:06.602Z,11.43
2022-11-17T05:46:33.850Z,12.50
2022-11-17T05:49:01.288Z,12.17
2022-11-17T05:51:28.445Z,13.23
2022-11-17T05:53:55.616Z,8.87
2022-11-17T05:56:30.053Z,13.10
2022-11-17T05:59:07.373Z,11.87
2022-11-17T06:01:38.813Z,14.00
2022-11-17T06:04:08.352Z,12.03
2022-11-17T06:06:37.372Z,11.83
2022-11-17T06:09:05.175Z,13.40
2022-11-17T06:11:32.389Z,11.20
2022-11-17T06:13:59.626Z,13.67
2022-11-17T06:16:30.620Z,17.97
2022-11-17T06:19:04.459Z,13.13
2022-11-17T06:21:49.473Z,16.93
2022-11-17T06:24:20.001Z,15.20
2022-11-17T06:26:47.323Z,13.73
2022-11-17T06:29:15.997Z,12.90
2022-11-17T06:31:44.684Z,11.50
2022-11-17T06:34:13.376Z,15.17
2022-11-17T06:36:40.666Z,11.80
2022-11-17T06:39:07.950Z,12.27
2022-11-17T06:41:36.492Z,13.27
2022-11-17T06:44:03.960Z,14.37
2022-11-17T06:46:31.215Z,16.03
2022-11-17T06:48:58.428Z,16.67
2022-11-17T06:51:27.030Z,13.30
2022-11-17T06:53:54.184Z,15.50
2022-11-17T06:56:21.456Z,13.17
2022-11-17T06:58:48.606Z,12.93
2022-11-17T07:01:15.934Z,12.40
2022-11-17T07:03:43.352Z,12.63
2022-11-17T07:06:11.073Z,14.83
2022-11-17T07:08:39.622Z,11.50
2022-11-17T07:11:09.037Z,16.27
2022-11-17T07:13:37.157Z,14.90
2022-11-17T07:16:06.377Z,15.90
2022-11-17T07:18:34.434Z,15.30
2022-11-17T07:21:03.020Z,15.67
2022-11-17T07:23:31.037Z,17.23
2022-11-17T07:26:00.040Z,18.63
2022-11-17T07:28:27.575Z,17.57
2022-11-17T07:30:55.266Z,20.20
2022-11-17T07:33:22.826Z,16.03
2022-11-17T07:35:50.071Z,15.57
2022-11-17T07:38:17.229Z,18.80
2022-11-17T07:40:44.667Z,16.57
2022-11-17T07:43:13.350Z,17.57
2022-11-17T07:45:40.618Z,18.07
2022-11-17T07:48:07.814Z,17.77
2022-11-17T07:50:35.031Z,16.43
2022-11-17T07:53:02.335Z,22.83
2022-11-17T07:55:29.637Z,18.37
2022-11-17T07:57:58.249Z,20.80
2022-11-17T08:00:28.844Z,13.63
2022-11-17T08:02:59.571Z,17.97
2022-11-17T08:05:27.309Z,21.67
2022-11-17T08:07:55.593Z,18.63
2022-11-17T08:10:22.909Z,21.20
2022-11-17T08:12:51.213Z,15.80
2022-11-17T08:15:18.808Z,17.97
2022-11-17T08:17:51.798Z,16.70
2022-11-17T08:20:19.044Z,24.37
2022-11-17T08:22:46.296Z,19.87
2022-11-17T08:25:13.538Z,19.50
2022-11-17T08:27:40.810Z,20.83
2022-11-17T08:30:08.777Z,17.63
2022-11-17T08:32:36.068Z,20.17
2022-11-17T08:35:05.533Z,17.30
2022-11-17T08:37:32.796Z,18.20
2022-11-17T08:39:59.989Z,13.77
2022-11-17T08:42:27.268Z,19.80
2022-11-17T08:44:54.491Z,16.30
2022-11-17T08:47:21.870Z,18.43
2022-11-17T08:49:49.109Z,19.43
2022-11-17T08:52:17.825Z,22.73
2022-11-17T08:54:45.182Z,19.33
2022-11-17T08:57:12.552Z,23.90
2022-11-17T08:59:39.797Z,15.97
2022-11-17T09:02:07.007Z,16.83
2022-11-17T09:04:34.378Z,18.03
2022-11-17T09:07:01.701Z,14.13
2022-11-17T09:09:31.900Z,15.10
2022-11-17T09:11:59.842Z,19.90
2022-11-17T09:14:27.072Z,21.87
2022-11-17T09:16:54.380Z,17.00
2022-11-17T09:19:21.619Z,16.17
2022-11-17T09:21:48.926Z,45.73
2022-11-17T09:24:16.287Z,15.33
2022-11-17T09:26:44.899Z,17.10
2022-11-17T09:29:12.105Z,11.77
2022-11-17T09:31:39.545Z,15.47
2022-11-17T09:34:06.869Z,14.60
2022-11-17T09:36:34.814Z,14.87
2022-11-17T09:39:02.018Z,16.60
2022-11-17T09:41:35.741Z,12.33
2022-11-17T09:44:14.287Z,10.93
2022-11-17T09:46:54.765Z,16.17
2022-11-17T09:49:32.802Z,15.07
2022-11-17T09:52:05.165Z,12.73
2022-11-17T09:54:40.956Z,15.47
2022-11-17T09:57:19.001Z,11.77
2022-11-17T09:59:52.281Z,14.97
2022-11-17T10:02:19.596Z,10.13
2022-11-17T10:04:46.965Z,13.27
2022-11-17T10:07:14.479Z,8.93
2022-11-17T10:09:44.170Z,13.07
2022-11-17T10:12:16.048Z,9.87
2022-11-17T10:14:44.047Z,11.53
2022-11-17T10:17:12.568Z,15.27
2022-11-17T10:19:40.924Z,13.13
2022-11-17T10:22:20.835Z,11.13
2022-11-17T10:24:50.695Z,13.30
2022-11-17T10:27:24.281Z,13.23
2022-11-17T10:30:02.664Z,15.60
2022-11-17T10:32:34.318Z,12.50
2022-11-17T10:35:15.904Z,12.70
2022-11-17T10:37:44.896Z,11.43
2022-11-17T10:40:23.579Z,11.50
2022-11-17T10:43:05.625Z,12.40
2022-11-17T10:45:33.731Z,10.70
2022-11-17T10:48:24.144Z,12.20
2022-11-17T10:50:54.100Z,10.57
2022-11-17T10:53:28.179Z,12.53
2022-11-17T10:56:00.609Z,9.87
2022-11-17T10:58:29.255Z,10.87
2022-11-17T11:00:58.435Z,11.00
2022-11-17T11:03:29.471Z,12.43
2022-11-17T11:06:20.791Z,12.73
2022-11-17T11:08:53.969Z,12.30
2022-11-17T11:11:36.054Z,10.63
2022-11-17T11:14:12.292Z,11.30
2022-11-17T11:16:48.519Z,8.23
2022-11-17T11:19:19.558Z,8.77
2022-11-17T11:22:15.706Z,11.17
2022-11-17T11:24:54.901Z,11.00
2022-11-17T11:27:42.191Z,9.77
2022-11-17T11:30:11.944Z,8.97
2022-11-17T11:32:51.108Z,9.23
2022-11-17T11:35:45.243Z,8.50
2022-11-17T11:38:34.773Z,6.90
2022-11-17T11:41:18.386Z,8.40
2022-11-17T11:43:58.792Z,7.33
2022-11-17T11:46:38.172Z,8.70
2022-11-17T11:49:16.274Z,10.20
2022-11-17T11:51:49.267Z,8.87
2022-11-17T11:54:30.781Z,8.10
2022-11-17T11:56:58.151Z,7.87
2022-11-17T11:59:40.740Z,9.07
2022-11-17T12:02:22.504Z,5.80
2022-11-17T12:04:59.612Z,5.87
2022-11-17T12:07:38.216Z,6.50
2022-11-17T12:10:12.898Z,7.57
2022-11-17T12:12:43.444Z,7.50
2022-11-17T12:15:33.036Z,29.70
2022-11-17T12:18:04.526Z,5.93
2022-11-17T12:20:59.431Z,7.53
2022-11-17T12:23:42.454Z,5.47
2022-11-17T12:26:21.436Z,5.53
2022-11-17T12:28:48.759Z,5.90
2022-11-17T12:31:43.580Z,7.07
2022-11-17T12:34:23.482Z,6.20
2022-11-17T12:37:21.637Z,6.40
2022-11-17T12:40:31.268Z,6.53
2022-11-17T12:43:21.593Z,6.00
2022-11-17T12:46:01.793Z,7.10
2022-11-17T12:48:34.321Z,7.10
2022-11-17T12:51:07.645Z,6.50
2022-11-17T12:53:56.187Z,6.80
2022-11-17T12:56:47.158Z,6.07
2022-11-17T12:59:51.823Z,5.87
2022-11-17T13:02:32.909Z,6.33
2022-11-17T13:05:03.730Z,5.33
2022-11-17T13:07:31.057Z,6.33
2022-11-17T13:09:59.640Z,8.43
2022-11-17T13:12:28.779Z,6.50
2022-11-17T13:14:59.001Z,7.03
2022-11-17T13:17:28.489Z,7.17
2022-11-17T13:20:03.288Z,8.73
2022-11-17T13:22:30.853Z,7.23
2022-11-17T13:24:58.043Z,7.53
2022-11-17T13:27:27.535Z,7.90
2022-11-17T13:30:14.661Z,8.83
2022-11-17T13:32:42.770Z,8.73
2022-11-17T13:35:21.745Z,7.17
2022-11-17T13:38:05.974Z,6.27
2022-11-17T13:40:35.664Z,6.70
2022-11-17T13:43:04.320Z,6.63
2022-11-17T13:45:33.109Z,7.30
2022-11-17T13:48:00.385Z,6.33
2022-11-17T13:50:37.410Z,5.83
2022-11-17T13:53:16.826Z,5.77
2022-11-17T13:55:45.276Z,6.37
2022-11-17T13:58:28.867Z,8.10
2022-11-17T14:00:58.809Z,6.40
2022-11-17T14:03:33.931Z,6.40
2022-11-17T14:06:02.639Z,7.27
2022-11-17T14:08:32.345Z,6.63
2022-11-17T14:11:16.209Z,6.33
2022-11-17T14:13:45.412Z,6.80
2022-11-17T14:16:25.352Z,7.57
2022-11-17T14:18:57.785Z,7.07
2022-11-17T14:21:25.017Z,6.97
2022-11-17T14:24:02.378Z,6.60
2022-11-17T14:26:29.936Z,6.87
2022-11-17T14:28:57.330Z,7.57
2022-11-17T14:31:25.930Z,5.13
2022-11-17T14:33:53.135Z,4.47
2022-11-17T14:36:20.435Z,7.43
2022-11-17T14:38:47.829Z,5.60
2022-11-17T14:41:15.805Z,5.57
2022-11-17T14:43:43.074Z,4.97
2022-11-17T14:46:17.729Z,5.60
2022-11-17T14:48:46.434Z,5.97
2022-11-17T14:51:16.612Z,4.70
2022-11-17T14:53:44.325Z,6.97
2022-11-17T14:56:14.264Z,6.57
2022-11-17T14:58:41.621Z,6.90
2022-11-17T15:01:10.372Z,6.50
2022-11-17T15:03:37.925Z,7.20
2022-11-17T15:06:09.173Z,5.30
2022-11-17T15:08:37.007Z,4.97
2022-11-17T15:11:05.244Z,5.87
2022-11-17T15:13:32.452Z,8.90
2022-11-17T15:16:03.318Z,6.00
2022-11-17T15:18:31.188Z,5.87
2022-11-17T15:21:02.840Z,5.93
2022-11-17T15:23:31.976Z,7.83
2022-11-17T15:25:59.437Z,4.70
2022-11-17T15:28:30.452Z,8.43
2022-11-17T15:30:58.193Z,6.97
2022-11-17T15:33:25.890Z,5.43
2022-11-17T15:36:01.191Z,7.20
2022-11-17T15:38:28.461Z,6.77
2022-11-17T15:40:57.224Z,5.93
2022-11-17T15:43:26.981Z,7.50
2022-11-17T15:45:59.943Z,5.37
2022-11-17T15:48:27.176Z,4.83
2022-11-17T15:50:56.704Z,6.70
2022-11-17T15:53:24.052Z,6.80
2022-11-17T15:55:51.229Z,6.77
2022-11-17T15:58:19.865Z,5.17
2022-11-17T16:00:47.104Z,6.07
2022-11-17T16:03:14.311Z,4.83
2022-11-17T16:05:41.504Z,7.07
2022-11-17T16:08:08.711Z,4.33
2022-11-17T16:10:35.893Z,5.30
2022-11-17T16:13:03.125Z,6.20
2022-11-17T16:15:31.664Z,7.90
2022-11-17T16:17:58.882Z,5.77
2022-11-17T16:20:26.171Z,12.40
2022-11-17T16:22:53.427Z,23.13
2022-11-17T16:25:20.760Z,18.27
2022-11-17T16:27:48.717Z,6.13
2022-11-17T16:30:16.561Z,6.00
2022-11-17T16:32:45.213Z,7.03
2022-11-17T16:35:12.386Z,6.60
2022-11-17T16:37:39.576Z,7.03
2022-11-17T16:40:07.526Z,6.53
2022-11-17T16:42:34.808Z,7.50
2022-11-17T16:45:02.118Z,7.10
2022-11-17T16:47:29.377Z,8.37
2022-11-17T16:49:58.129Z,7.80
2022-11-17T16:52:25.423Z,8.60
2022-11-17T16:54:52.679Z,6.07
2022-11-17T16:57:19.926Z,6.73
2022-11-17T16:59:47.134Z,7.20
2022-11-17T17:02:14.336Z,8.17
2022-11-17T17:04:41.590Z,7.17
2022-11-17T17:07:10.196Z,7.33
2022-11-17T17:09:37.403Z,7.50
2022-11-17T17:12:05.496Z,6.63
2022-11-17T17:14:32.735Z,7.73
2022-11-17T17:17:00.034Z,9.13
2022-11-17T17:19:27.573Z,8.13
2022-11-17T17:21:54.785Z,9.33
2022-11-17T17:24:23.390Z,9.13
2022-11-17T17:26:50.861Z,7.43
2022-11-17T17:29:18.578Z,6.70
2022-11-17T17:31:46.030Z,10.07
2022-11-17T17:34:13.389Z,8.10
2022-11-17T17:36:41.064Z,9.40
2022-11-17T17:39:08.260Z,7.00
2022-11-17T17:41:39.657Z,8.33
2022-11-17T17:44:08.279Z,7.00
2022-11-17T17:46:37.328Z,7.43
2022-11-17T17:49:05.618Z,9.77
2022-11-17T17:51:36.720Z,7.60
2022-11-17T17:54:04.393Z,8.57
2022-11-17T17:56:33.963Z,10.97
2022-11-17T17:59:02.523Z,7.43
2022-11-17T18:01:31.374Z,8.43
2022-11-17T18:04:00.107Z,9.07
2022-11-17T18:06:27.504Z,10.10
2022-11-17T18:08:54.769Z,9.30
2022-11-17T18:11:22.001Z,7.83
2022-11-17T18:13:50.713Z,10.10
2022-11-17T18:16:23.512Z,8.43
2022-11-17T18:18:56.165Z,10.60
2022-11-17T18:21:23.681Z,9.40
2022-11-17T18:23:52.541Z,10.40
2022-11-17T18:26:21.452Z,9.03
2022-11-17T18:28:51.690Z,8.13
2022-11-17T18:31:21.230Z,22.60
2022-11-17T18:33:50.962Z,12.80
2022-11-17T18:36:18.493Z,39.97
2022-11-17T18:38:45.853Z,8.87
2022-11-17T18:41:15.140Z,12.80
2022-11-17T18:43:43.376Z,9.20
2022-11-17T18:46:12.415Z,10.27
2022-11-17T18:48:42.386Z,8.63
2022-11-17T18:51:19.928Z,9.47
2022-11-17T18:53:48.576Z,10.00
2022-11-17T18:56:18.364Z,8.70
2022-11-17T18:58:45.905Z,7.27
2022-11-17T19:01:15.212Z,8.30
2022-11-17T19:03:46.288Z,10.17
2022-11-17T19:06:14.824Z,8.00
2022-11-17T19:08:42.512Z,9.43
2022-11-17T19:11:10.724Z,7.97
2022-11-17T19:13:39.594Z,9.33
2022-11-17T19:16:09.017Z,10.03
2022-11-17T19:18:36.643Z,11.67
2022-11-17T19:21:07.417Z,7.80
2022-11-17T19:23:35.765Z,10.47
2022-11-17T19:26:04.469Z,8.57
2022-11-17T19:28:32.254Z,8.67
2022-11-17T19:31:03.178Z,8.33
2022-11-17T19:33:31.686Z,8.87
2022-11-17T19:36:02.863Z,7.67
2022-11-17T19:38:31.507Z,9.53
2022-11-17T19:41:01.863Z,9.33
2022-11-17T19:43:30.901Z,9.30
2022-11-17T19:45:59.429Z,9.67
2022-11-17T19:48:26.854Z,10.60
2022-11-17T19:50:56.021Z,8.00
2022-11-17T19:53:23.990Z,11.50
2022-11-17T19:55:52.988Z,10.87
2022-11-17T19:58:20.786Z,8.90
2022-11-17T20:00:48.040Z,9.53
2022-11-17T20:03:15.606Z,11.97
2022-11-17T20:05:42.797Z,10.47
2022-11-17T20:08:10.047Z,9.87
2022-11-17T20:10:37.306Z,5.60
2022-11-17T20:13:05.928Z,11.00
2022-11-17T20:15:34.924Z,9.43
2022-11-17T20:18:02.512Z,8.37
2022-11-17T20:20:29.699Z,9.97
2022-11-17T20:22:56.964Z,8.30
2022-11-17T20:25:24.217Z,12.60
2022-11-17T20:27:51.543Z,10.47
2022-11-17T20:30:20.314Z,9.40
2022-11-17T20:32:47.503Z,20.63
2022-11-17T20:35:14.918Z,41.73
2022-11-17T20:37:42.110Z,17.27
2022-11-17T20:40:10.910Z,9.20
2022-11-17T20:42:38.152Z,8.93
2022-11-17T20:45:06.869Z,10.17
2022-11-17T20:47:35.470Z,10.63
2022-11-17T20:50:02.905Z,9.37
2022-11-17T20:52:31.203Z,6.53
2022-11-17T20:54:58.453Z,8.23
2022-11-17T20:57:25.685Z,8.13
2022-11-17T20:59:53.001Z,8.50
2022-11-17T21:02:20.297Z,9.10
2022-11-17T21:04:48.956Z,7.87
2022-11-17T21:07:16.334Z,9.97
2022-11-17T21:09:43.666Z,8.77
2022-11-17T21:12:10.917Z,8.53
2022-11-17T21:14:38.131Z,8.10
2022-11-17T21:17:05.577Z,10.30
2022-11-17T21:19:37.860Z,8.50
2022-11-17T21:22:07.518Z,7.17
2022-11-17T21:24:34.711Z,28.17
2022-11-17T21:27:01.912Z,22.97
2022-11-17T21:29:29.186Z,47.40
2022-11-17T21:31:56.411Z,8.50
2022-11-17T21:34:23.668Z,6.97
2022-11-17T21:36:50.869Z,7.43
2022-11-17T21:39:19.618Z,7.93
2022-11-17T21:41:47.070Z,6.60
2022-11-17T21:44:14.295Z,7.87
2022-11-17T21:46:41.501Z,7.80
2022-11-17T21:49:08.797Z,7.20
2022-11-17T21:51:36.634Z,6.47
2022-11-17T21:54:05.929Z,7.50
2022-11-17T21:56:34.535Z,7.47
2022-11-17T21:59:03.360Z,8.63
2022-11-17T22:01:30.939Z,7.90
2022-11-17T22:03:58.453Z,8.40
2022-11-17T22:06:26.546Z,7.77
2022-11-17T22:08:54.978Z,9.93
2022-11-17T22:11:24.244Z,11.30
2022-11-17T22:13:52.875Z,10.10
2022-11-17T22:16:20.176Z,12.47
2022-11-17T22:18:47.334Z,15.50
2022-11-17T22:21:14.617Z,8.53
2022-11-17T22:23:41.889Z,10.40
2022-11-17T22:26:10.942Z,10.30
2022-11-17T22:28:38.297Z,9.70
2022-11-17T22:31:07.591Z,11.30
2022-11-17T22:33:35.378Z,9.80
2022-11-17T22:36:02.861Z,11.23
2022-11-17T22:38:30.069Z,11.07
2022-11-17T22:40:59.872Z,12.90
2022-11-17T22:43:27.149Z,11.07
2022-11-17T22:45:54.340Z,11.90
2022-11-17T22:48:23.012Z,11.30
2022-11-17T22:50:50.243Z,13.23
2022-11-17T22:53:17.586Z,12.37
2022-11-17T22:55:45.013Z,12.90
2022-11-17T22:58:12.264Z,13.20
2022-11-17T23:00:39.450Z,16.17
2022-11-17T23:03:06.635Z,11.83
2022-11-17T23:05:35.256Z,16.30
2022-11-17T23:08:08.246Z,15.87
2022-11-17T23:10:37.373Z,14.87
2022-11-17T23:13:04.812Z,15.40
2022-11-17T23:15:31.992Z,14.67
2022-11-17T23:17:59.269Z,13.23
2022-11-17T23:20:26.493Z,14.07
2022-11-17T23:22:55.112Z,16.07
2022-11-17T23:25:22.303Z,16.53
2022-11-17T23:27:49.565Z,19.10
2022-11-17T23:30:17.106Z,16.50
2022-11-17T23:32:44.481Z,17.60
2022-11-17T23:35:11.825Z,16.30
2022-11-17T23:37:39.137Z,19.10
2022-11-17T23:40:09.563Z,17.73
2022-11-17T23:42:42.731Z,17.57
2022-11-17T23:45:11.558Z,15.33
2022-11-17T23:47:39.219Z,20.27
2022-11-17T23:50:07.663Z,18.70
2022-11-17T23:52:34.943Z,17.90
2022-11-17T23:55:02.735Z,17.63
2022-11-17T23:57:31.314Z,18.97
2022-11-17T23:59:58.606Z,18.50
